Time;durP1;ratioP1;P1;durP2;ratioP2;P2;SDS_P1;SDS_P2;PMS_P1;PMS_P2;Temp;Humidity;BMP_temperature;BMP_pressure;BME280_temperature;BME280_humidity;BME280_pressure;Samples;Min_cycle;Max_cycle;Signal;HPM_P1;HPM_P2
2023/01/11 00:00:23;;;;;;;6.00;5.80;;;8.70;99.90;;;;;;5055347;28;20190;-64
2023/01/11 00:03:01;;;;;;;5.30;5.10;;;8.70;99.90;;;;;;5052304;28;20269;-64
2023/01/11 00:05:26;;;;;;;5.40;5.20;;;8.70;99.90;;;;;;5044760;28;20206;-64
2023/01/11 00:07:52;;;;;;;5.80;5.60;;;8.80;99.90;;;;;;5057619;28;20205;-64
2023/01/11 00:10:19;;;;;;;6.00;5.70;;;8.80;99.90;;;;;;5051469;28;20186;-63
2023/01/11 00:12:45;;;;;;;5.50;5.30;;;8.80;99.90;;;;;;5037476;28;20198;-64
2023/01/11 00:15:12;;;;;;;5.40;5.20;;;8.90;99.90;;;;;;5041157;28;20183;-64
2023/01/11 00:17:37;;;;;;;4.93;4.73;;;8.90;99.90;;;;;;5056566;28;20166;-64
2023/01/11 00:20:03;;;;;;;5.33;5.13;;;8.90;99.90;;;;;;5050775;28;20183;-64
2023/01/11 00:22:29;;;;;;;4.90;4.70;;;9.00;99.90;;;;;;5034244;28;20290;-64
2023/01/11 00:24:54;;;;;;;4.90;4.70;;;9.00;99.90;;;;;;5034605;28;20290;-64
2023/01/11 00:27:20;;;;;;;6.17;5.97;;;9.00;99.90;;;;;;5054363;28;20175;-64
2023/01/11 00:29:45;;;;;;;5.70;5.50;;;9.00;99.90;;;;;;5053806;28;20175;-64
2023/01/11 00:32:11;;;;;;;5.30;5.10;;;9.00;99.90;;;;;;5034821;28;20286;-64
2023/01/11 00:34:37;;;;;;;4.90;4.60;;;9.00;99.90;;;;;;5034159;28;20168;-64
2023/01/11 00:37:03;;;;;;;5.30;5.10;;;9.00;99.90;;;;;;5050651;28;20179;-64
2023/01/11 00:39:29;;;;;;;5.00;4.80;;;9.00;99.90;;;;;;5053403;28;20163;-64
2023/01/11 00:50:07;;;;;;;4.93;4.73;;;9.10;99.90;;;;;;5053262;28;20178;-64
2023/01/11 00:52:32;;;;;;;4.90;4.70;;;9.10;99.90;;;;;;5033916;28;20611;-64
2023/01/11 00:54:58;;;;;;;4.83;4.63;;;9.10;99.90;;;;;;5033717;28;20293;-64
2023/01/11 00:57:23;;;;;;;5.03;4.83;;;9.10;99.90;;;;;;5051451;28;20550;-64
2023/01/11 00:59:49;;;;;;;5.27;5.07;;;9.10;99.90;;;;;;5053401;28;20265;-64
2023/01/11 01:02:15;;;;;;;5.47;5.27;;;9.10;99.90;;;;;;5036961;28;20214;-64
2023/01/11 01:04:40;;;;;;;5.43;5.23;;;9.20;99.90;;;;;;5033611;28;20179;-64
2023/01/11 01:07:06;;;;;;;5.60;5.40;;;9.20;99.90;;;;;;5047426;28;20205;-64
2023/01/11 01:09:32;;;;;;;5.37;5.17;;;9.20;99.90;;;;;;5053177;28;20175;-64
2023/01/11 01:11:58;;;;;;;4.97;4.77;;;9.20;99.90;;;;;;5040480;28;20196;-64
2023/01/11 01:14:29;;;;;;;5.00;4.80;;;9.20;99.90;;;;;;5033329;28;20169;-64
2023/01/11 01:17:06;;;;;;;4.80;4.60;;;9.20;99.90;;;;;;5044692;28;20185;-64
2023/01/11 01:19:34;;;;;;;4.97;4.67;;;9.20;99.90;;;;;;5052956;28;20301;-64
2023/01/11 01:22:00;;;;;;;5.20;5.00;;;9.20;99.90;;;;;;5040851;28;20665;-64
2023/01/11 01:24:29;;;;;;;5.53;5.03;;;9.20;99.90;;;;;;5033107;28;20167;-64
2023/01/11 01:26:56;;;;;;;4.93;4.73;;;9.20;99.90;;;;;;5043474;28;20182;-64
2023/01/11 01:29:23;;;;;;;4.87;4.67;;;9.30;99.90;;;;;;5052778;28;20592;-64
2023/01/11 01:31:48;;;;;;;4.83;4.60;;;9.30;99.90;;;;;;5043772;28;20669;-64
2023/01/11 01:34:14;;;;;;;4.80;4.60;;;9.30;99.90;;;;;;5032800;28;20174;-64
2023/01/11 01:36:40;;;;;;;5.17;4.93;;;9.30;99.90;;;;;;5040038;28;20202;-64
2023/01/11 01:39:06;;;;;;;4.83;4.63;;;9.30;99.90;;;;;;5052519;28;20181;-64
2023/01/11 01:41:33;;;;;;;5.13;4.90;;;9.20;99.90;;;;;;5047169;28;20215;-65
2023/01/11 01:44:00;;;;;;;4.43;4.23;;;9.20;99.90;;;;;;5032691;28;20206;-64
2023/01/11 01:46:29;;;;;;;5.00;4.60;;;9.20;99.90;;;;;;5036833;28;20179;-64
2023/01/11 01:49:12;;;;;;;4.80;4.60;;;9.20;99.90;;;;;;5052582;28;20225;-64
2023/01/11 01:51:47;;;;;;;4.50;4.30;;;9.20;99.90;;;;;;5040278;28;20199;-64
2023/01/11 01:54:19;;;;;;;4.93;4.70;;;9.20;99.90;;;;;;5032351;28;20178;-64
2023/01/11 01:56:51;;;;;;;4.77;4.57;;;9.10;99.90;;;;;;5044807;28;20179;-64
2023/01/11 01:59:20;;;;;;;4.60;4.40;;;9.10;99.90;;;;;;5052231;28;20194;-64
2023/01/11 02:01:46;;;;;;;4.70;4.50;;;9.10;99.90;;;;;;5037778;28;20210;-64
2023/01/11 02:04:29;;;;;;;4.80;4.60;;;9.10;99.90;;;;;;5030855;28;20207;-64
2023/01/11 02:07:30;;;;;;;5.27;5.07;;;9.10;99.90;;;;;;5048455;28;20648;-64
2023/01/11 02:10:10;;;;;;;5.57;5.37;;;9.10;99.90;;;;;;5052220;28;20209;-64
2023/01/11 02:13:01;;;;;;;5.43;5.10;;;9.20;99.90;;;;;;5012546;28;20198;-65
2023/01/11 02:15:28;;;;;;;4.40;4.20;;;9.20;99.90;;;;;;5018574;28;20186;-64
2023/01/11 02:17:53;;;;;;;4.60;4.40;;;9.20;99.90;;;;;;5052070;28;20587;-64
2023/01/11 02:20:33;;;;;;;5.00;4.80;;;9.20;99.90;;;;;;5050010;28;20167;-64
2023/01/11 02:23:17;;;;;;;5.27;5.07;;;9.20;99.90;;;;;;5031956;28;20715;-64
2023/01/11 02:25:58;;;;;;;6.10;5.90;;;9.20;99.90;;;;;;5035920;28;20179;-64
2023/01/11 02:28:30;;;;;;;4.87;4.67;;;9.20;99.90;;;;;;5049639;28;20175;-64
2023/01/11 02:31:09;;;;;;;5.13;4.93;;;9.20;99.90;;;;;;5049784;28;20679;-63
2023/01/11 02:33:56;;;;;;;4.93;4.73;;;9.30;99.90;;;;;;5021287;28;20178;-64
2023/01/11 02:36:29;;;;;;;4.83;4.63;;;9.20;99.90;;;;;;5012102;28;20180;-64
2023/01/11 02:39:30;;;;;;;5.10;4.90;;;9.20;99.90;;;;;;5011241;28;20666;-64
2023/01/11 02:45:23;;;;;;;4.60;4.40;;;9.10;99.90;;;;;;5031748;28;20187;-64
2023/01/11 02:48:07;;;;;;;4.73;4.53;;;9.10;99.90;;;;;;5049952;28;20183;-65
2023/01/11 02:50:59;;;;;;;5.70;5.50;;;9.10;99.90;;;;;;5049980;28;20220;-64
2023/01/11 02:53:42;;;;;;;5.50;5.20;;;9.10;99.90;;;;;;5012053;28;20180;-63
2023/01/11 02:56:17;;;;;;;5.20;5.00;;;9.10;99.90;;;;;;5016761;28;20174;-64
2023/01/11 02:58:45;;;;;;;5.20;5.00;;;9.00;99.90;;;;;;5050467;28;20592;-64
2023/01/11 03:01:12;;;;;;;5.20;5.00;;;9.00;99.90;;;;;;5047444;28;20195;-64
2023/01/11 03:03:37;;;;;;;5.20;5.00;;;9.00;99.90;;;;;;5031472;28;20225;-65
2023/01/11 03:06:06;;;;;;;5.07;4.87;;;9.10;99.90;;;;;;5032945;28;20175;-64
2023/01/11 03:08:32;;;;;;;5.60;5.40;;;9.10;99.90;;;;;;5051350;28;20179;-64
2023/01/11 03:11:03;;;;;;;5.57;5.37;;;9.00;99.90;;;;;;5050274;28;20195;-63
2023/01/11 03:13:57;;;;;;;5.33;5.13;;;9.10;99.90;;;;;;5031750;28;20167;-64
2023/01/11 03:16:31;;;;;;;4.80;4.60;;;9.10;99.90;;;;;;5034425;28;20725;-64
2023/01/11 03:19:26;;;;;;;5.30;5.10;;;9.10;99.90;;;;;;5051265;28;20603;-64
2023/01/11 03:22:18;;;;;;;5.20;5.00;;;9.10;99.90;;;;;;5043277;28;20569;-64
2023/01/11 03:25:28;;;;;;;5.50;5.30;;;9.10;99.90;;;;;;5013217;28;20708;-64
2023/01/11 03:28:21;;;;;;;5.53;5.33;;;9.10;99.90;;;;;;5046419;28;20186;-64
2023/01/11 03:31:00;;;;;;;4.80;4.60;;;9.10;99.90;;;;;;5050493;28;20182;-64
2023/01/11 03:33:44;;;;;;;5.73;5.53;;;9.20;99.90;;;;;;5032351;28;20262;-64
2023/01/11 03:36:37;;;;;;;5.00;4.80;;;9.20;99.90;;;;;;5031188;28;20255;-63
2023/01/11 03:39:32;;;;;;;4.90;4.70;;;9.30;99.90;;;;;;5010646;28;20180;-63
2023/01/11 03:42:00;;;;;;;4.30;4.10;;;9.60;99.90;;;;;;5000180;28;20218;-64
2023/01/11 03:44:30;;;;;;;4.80;4.60;;;9.80;99.90;;;;;;5051054;28;20175;-64
2023/01/11 03:47:04;;;;;;;4.50;4.30;;;10.10;99.90;;;;;;5046231;28;20513;-64
2023/01/11 03:49:32;;;;;;;5.00;4.80;;;10.30;99.90;;;;;;5031046;28;20636;-64
2023/01/11 03:52:00;;;;;;;4.40;4.20;;;10.40;99.90;;;;;;5035032;28;20191;-64
2023/01/11 03:54:28;;;;;;;4.90;4.70;;;10.50;99.90;;;;;;5053291;28;20261;-65
2023/01/11 03:57:18;;;;;;;4.90;4.70;;;10.50;99.90;;;;;;5051251;28;20217;-65
2023/01/11 03:59:44;;;;;;;5.10;4.90;;;10.60;99.90;;;;;;5035025;28;20172;-65
2023/01/11 04:02:32;;;;;;;5.50;5.30;;;10.60;99.90;;;;;;5054474;28;20197;-65
2023/01/11 04:04:58;;;;;;;4.83;4.63;;;10.50;99.90;;;;;;5052943;28;20174;-65
2023/01/11 04:07:24;;;;;;;6.20;6.00;;;10.50;99.90;;;;;;5054727;28;20167;-65
2023/01/11 04:09:49;;;;;;;5.00;4.80;;;10.50;99.90;;;;;;5053766;28;20209;-65
2023/01/11 04:12:15;;;;;;;4.80;4.60;;;10.50;99.90;;;;;;5034439;28;20666;-65
2023/01/11 04:14:41;;;;;;;4.83;4.63;;;10.50;99.90;;;;;;5034662;28;20536;-65
2023/01/11 04:17:06;;;;;;;4.57;4.37;;;10.50;99.90;;;;;;5052665;28;20189;-65
2023/01/11 04:19:32;;;;;;;4.70;4.50;;;10.50;99.90;;;;;;5054143;28;20253;-65
2023/01/11 04:21:57;;;;;;;4.20;4.00;;;10.50;99.90;;;;;;5037195;28;20199;-65
2023/01/11 04:24:23;;;;;;;4.73;4.53;;;10.50;99.90;;;;;;5035170;28;20288;-65
2023/01/11 04:26:49;;;;;;;4.40;4.20;;;10.50;99.90;;;;;;5034375;28;20701;-65
2023/01/11 04:29:14;;;;;;;4.10;3.97;;;10.60;99.90;;;;;;5047680;28;20186;-65
2023/01/11 04:31:40;;;;;;;4.33;4.13;;;10.50;99.90;;;;;;5054109;28;20186;-65
2023/01/11 04:34:05;;;;;;;4.87;4.57;;;10.50;99.90;;;;;;5041777;28;20667;-65
2023/01/11 04:36:32;;;;;;;4.40;4.20;;;10.60;99.90;;;;;;5034107;28;20187;-65
2023/01/11 04:38:58;;;;;;;4.40;4.20;;;10.60;99.90;;;;;;5043481;28;20171;-65
2023/01/11 04:44:08;;;;;;;5.60;4.07;;;10.60;99.90;;;;;;5042181;28;20321;-65
2023/01/11 04:46:34;;;;;;;4.03;3.93;;;10.60;99.90;;;;;;5033869;28;20176;-66
2023/01/11 04:48:59;;;;;;;4.40;4.20;;;10.60;99.90;;;;;;5043302;28;20614;-65
2023/01/11 04:51:25;;;;;;;4.37;4.17;;;10.60;99.90;;;;;;5053393;28;20195;-65
2023/01/11 04:53:51;;;;;;;4.57;4.37;;;10.50;99.90;;;;;;5045612;28;20205;-65
2023/01/11 04:56:17;;;;;;;4.40;4.20;;;10.50;99.90;;;;;;5033576;28;20641;-65
2023/01/11 04:58:43;;;;;;;4.33;4.13;;;10.60;99.90;;;;;;5039900;28;20178;-65
2023/01/11 05:01:15;;;;;;;4.80;4.60;;;10.60;99.90;;;;;;5053065;28;20191;-65
2023/01/11 05:03:40;;;;;;;4.90;4.70;;;10.50;99.90;;;;;;5048316;28;20765;-65
2023/01/11 05:06:07;;;;;;;4.30;4.10;;;10.60;99.90;;;;;;5033138;28;20199;-65
2023/01/11 05:08:33;;;;;;;4.30;4.10;;;10.60;99.90;;;;;;5036998;28;20664;-66
2023/01/11 05:11:01;;;;;;;4.50;4.27;;;10.60;99.90;;;;;;5053013;28;20242;-65
2023/01/11 05:13:42;;;;;;;4.07;3.97;;;10.60;99.90;;;;;;5050730;28;21375;-65
2023/01/11 05:16:19;;;;;;;4.30;4.10;;;10.60;99.90;;;;;;5033445;28;20177;-64
2023/01/11 05:18:49;;;;;;;4.03;3.93;;;10.60;99.90;;;;;;5037458;28;20514;-65
2023/01/11 05:21:17;;;;;;;4.23;4.03;;;10.60;99.90;;;;;;5052860;28;20195;-65
2023/01/11 05:23:43;;;;;;;4.50;4.30;;;10.60;99.90;;;;;;5051650;28;20261;-65
2023/01/11 05:26:23;;;;;;;3.87;3.77;;;10.60;99.90;;;;;;5053075;28;20593;-65
2023/01/11 05:28:50;;;;;;;4.37;4.17;;;10.60;99.90;;;;;;5049127;28;20256;-65
2023/01/11 05:31:16;;;;;;;4.10;4.00;;;10.60;99.90;;;;;;5030483;28;20242;-65
2023/01/11 05:33:41;;;;;;;4.50;4.30;;;10.60;99.90;;;;;;5034646;28;20182;-65
2023/01/11 05:36:11;;;;;;;4.50;4.30;;;10.60;99.90;;;;;;5052613;28;20179;-65
2023/01/11 05:38:37;;;;;;;4.10;4.00;;;10.60;99.90;;;;;;5050489;28;20214;-65
2023/01/11 05:41:06;;;;;;;4.70;4.50;;;10.60;99.90;;;;;;5048253;28;20310;-65
2023/01/11 05:43:32;;;;;;;4.60;4.40;;;10.60;99.90;;;;;;5051337;28;20337;-65
2023/01/11 05:45:59;;;;;;;4.80;4.60;;;10.60;99.90;;;;;;5033055;28;20696;-65
2023/01/11 05:48:25;;;;;;;4.20;4.00;;;10.60;99.90;;;;;;5032707;28;20172;-65
2023/01/11 05:50:52;;;;;;;4.30;4.10;;;10.60;99.90;;;;;;5050552;28;20262;-65
2023/01/11 05:53:18;;;;;;;4.07;3.97;;;10.60;99.90;;;;;;5051064;28;20183;-65
2023/01/11 05:55:55;;;;;;;5.63;4.17;;;10.70;99.90;;;;;;5052587;28;20229;-65
2023/01/11 05:58:21;;;;;;;4.50;4.30;;;10.70;99.90;;;;;;5034741;28;20675;-65
2023/01/11 06:00:52;;;;;;;4.10;4.00;;;10.70;99.90;;;;;;5043393;28;20631;-65
2023/01/11 06:03:18;;;;;;;4.30;4.10;;;10.70;99.90;;;;;;5052492;28;20244;-65
2023/01/11 06:05:43;;;;;;;4.00;3.90;;;10.70;99.90;;;;;;5050118;28;20299;-65
2023/01/11 06:08:09;;;;;;;4.07;3.93;;;10.70;99.90;;;;;;5046213;28;20194;-65
2023/01/11 06:10:35;;;;;;;4.07;3.80;;;10.70;99.90;;;;;;5031823;28;20174;-65
2023/01/11 06:15:45;;;;;;;4.37;4.17;;;10.70;99.90;;;;;;5050762;28;20174;-65
2023/01/11 06:18:10;;;;;;;4.00;3.80;;;10.70;99.90;;;;;;5046748;28;20179;-65
2023/01/11 06:20:36;;;;;;;4.30;4.10;;;10.70;99.90;;;;;;5031691;28;20190;-65
2023/01/11 06:23:02;;;;;;;4.30;4.10;;;10.80;99.90;;;;;;5034837;28;20198;-65
2023/01/11 06:25:29;;;;;;;4.10;3.90;;;10.80;99.90;;;;;;5051964;28;20228;-65
2023/01/11 06:27:55;;;;;;;24.53;16.73;;;10.80;99.90;;;;;;5050082;28;20191;-66
2023/01/11 06:30:21;;;;;;;4.90;4.60;;;10.90;99.90;;;;;;5031544;28;20167;-65
2023/01/11 06:32:46;;;;;;;4.33;4.13;;;10.90;99.90;;;;;;5051644;28;20657;-65
2023/01/11 06:35:12;;;;;;;4.00;3.90;;;10.90;99.90;;;;;;5051767;28;20667;-65
2023/01/11 06:37:37;;;;;;;3.70;3.60;;;10.90;99.90;;;;;;5035127;28;20184;-65
2023/01/11 06:40:03;;;;;;;4.00;3.90;;;10.90;99.90;;;;;;5011736;28;20262;-65
2023/01/11 06:42:29;;;;;;;3.80;3.70;;;10.90;99.90;;;;;;5011782;28;20211;-65
2023/01/11 06:44:54;;;;;;;3.63;3.53;;;10.80;99.90;;;;;;5012057;28;20176;-65
2023/01/11 06:47:20;;;;;;;4.10;3.90;;;10.90;99.90;;;;;;5026874;28;20189;-65
2023/01/11 06:49:45;;;;;;;4.47;4.23;;;10.90;99.90;;;;;;5030182;28;20703;-65
2023/01/11 06:52:11;;;;;;;4.30;4.10;;;10.90;99.90;;;;;;5043667;28;20213;-65
2023/01/11 06:54:36;;;;;;;4.30;4.10;;;10.90;99.90;;;;;;5051558;28;20175;-65
2023/01/11 06:57:02;;;;;;;3.90;3.80;;;10.90;99.90;;;;;;5049856;28;20524;-65
2023/01/11 06:59:28;;;;;;;3.83;3.70;;;10.90;99.90;;;;;;5051291;28;20227;-65
2023/01/11 07:01:53;;;;;;;3.90;3.80;;;10.90;99.90;;;;;;5042193;28;20199;-65
2023/01/11 07:04:20;;;;;;;3.90;3.80;;;10.90;99.90;;;;;;5031400;28;20196;-65
2023/01/11 07:06:46;;;;;;;4.40;4.20;;;10.90;99.90;;;;;;5038622;28;20213;-65
2023/01/11 07:09:11;;;;;;;4.23;3.83;;;11.00;99.90;;;;;;5051160;28;20194;-65
2023/01/11 07:11:38;;;;;;;4.40;4.10;;;11.00;99.90;;;;;;5045520;28;20188;-65
2023/01/11 07:14:05;;;;;;;4.33;4.13;;;11.00;99.90;;;;;;5031439;28;20163;-64
2023/01/11 07:16:31;;;;;;;3.90;3.70;;;11.00;99.90;;;;;;5031615;28;20221;-64
2023/01/11 07:18:56;;;;;;;4.00;3.80;;;11.00;99.90;;;;;;5042092;28;20186;-64
2023/01/11 07:21:23;;;;;;;4.40;4.20;;;11.00;99.90;;;;;;5031894;28;20199;-64
2023/01/11 07:23:50;;;;;;;4.40;4.20;;;11.00;99.90;;;;;;5031185;28;20272;-64
2023/01/11 07:26:16;;;;;;;4.40;4.10;;;11.00;99.90;;;;;;5045230;28;20183;-65
2023/01/11 07:28:42;;;;;;;4.13;3.93;;;11.10;99.90;;;;;;5053939;28;20173;-64
2023/01/11 07:31:08;;;;;;;4.67;4.47;;;11.00;99.90;;;;;;5041664;28;20195;-64
2023/01/11 07:33:34;;;;;;;4.50;4.30;;;11.00;99.90;;;;;;5035506;28;20181;-64
2023/01/11 07:35:59;;;;;;;4.13;3.93;;;11.00;99.90;;;;;;5045791;28;20185;-64
2023/01/11 07:38:28;;;;;;;4.50;4.30;;;11.00;99.90;;;;;;5053977;28;20175;-64
2023/01/11 07:40:54;;;;;;;4.30;4.10;;;11.00;99.90;;;;;;5053473;28;20186;-64
2023/01/11 07:43:22;;;;;;;4.30;4.10;;;10.90;99.90;;;;;;5054852;28;20198;-65
2023/01/11 07:45:49;;;;;;;3.70;3.60;;;10.90;99.90;;;;;;5054663;28;20206;-65
2023/01/11 07:48:24;;;;;;;4.30;4.10;;;10.90;99.90;;;;;;5054966;28;20629;-65
2023/01/11 07:50:51;;;;;;;4.20;4.00;;;10.90;99.90;;;;;;5053885;28;20174;-64
2023/01/11 07:53:17;;;;;;;4.50;4.30;;;10.90;99.90;;;;;;5053529;28;20262;-65
2023/01/11 07:55:43;;;;;;;3.90;3.80;;;10.90;99.90;;;;;;5054266;28;20198;-64
2023/01/11 07:58:11;;;;;;;4.97;4.47;;;10.90;99.90;;;;;;5054607;28;20210;-64
2023/01/11 08:00:36;;;;;;;3.90;3.80;;;10.90;99.90;;;;;;5037599;28;20237;-67
2023/01/11 08:03:02;;;;;;;3.93;3.73;;;10.90;99.90;;;;;;5034807;28;20203;-64
2023/01/11 08:05:28;;;;;;;4.00;3.80;;;10.90;99.90;;;;;;5049382;28;20210;-64
2023/01/11 08:07:53;;;;;;;4.30;4.10;;;10.90;99.90;;;;;;5054686;28;20640;-65
2023/01/11 08:10:19;;;;;;;4.17;3.97;;;10.90;99.90;;;;;;5040766;28;20230;-66
2023/01/11 08:15:32;;;;;;;4.30;4.10;;;10.90;99.90;;;;;;5048599;28;20197;-64
2023/01/11 08:17:58;;;;;;;4.07;3.90;;;10.90;99.90;;;;;;5054361;28;20178;-64
2023/01/11 08:20:25;;;;;;;4.50;4.30;;;10.90;99.90;;;;;;5040896;28;20599;-64
2023/01/11 08:22:51;;;;;;;4.60;4.40;;;10.90;99.90;;;;;;5034163;28;20276;-65
2023/01/11 08:25:17;;;;;;;4.50;4.10;;;10.80;99.90;;;;;;5035098;28;20719;-65
2023/01/11 08:27:43;;;;;;;4.40;4.20;;;10.90;99.90;;;;;;5036347;28;20269;-64
2023/01/11 08:30:10;;;;;;;4.40;4.20;;;10.80;99.90;;;;;;5053403;28;20520;-64
2023/01/11 08:32:35;;;;;;;4.90;4.63;;;10.80;99.90;;;;;;5052640;28;20202;-65
2023/01/11 08:35:01;;;;;;;4.40;4.20;;;10.80;99.90;;;;;;5054020;28;20539;-64
2023/01/11 08:37:26;;;;;;;4.60;4.40;;;10.80;99.90;;;;;;5053205;28;20312;-65
2023/01/11 08:39:54;;;;;;;6.13;5.73;;;10.80;99.90;;;;;;5031827;28;20586;-65
2023/01/11 08:42:20;;;;;;;4.83;4.43;;;10.80;99.90;;;;;;5033653;28;20199;-65
2023/01/11 08:44:45;;;;;;;4.50;4.30;;;10.80;99.90;;;;;;5052214;28;20542;-64
2023/01/11 08:47:11;;;;;;;4.40;4.10;;;10.80;99.90;;;;;;5053888;28;20182;-64
2023/01/11 08:49:36;;;;;;;4.83;4.50;;;10.80;99.90;;;;;;5036772;28;20603;-65
2023/01/11 08:52:02;;;;;;;5.03;4.63;;;10.80;99.90;;;;;;5033698;28;20206;-65
2023/01/11 08:54:28;;;;;;;4.80;4.50;;;10.80;99.90;;;;;;5048056;28;20194;-64
2023/01/11 08:56:54;;;;;;;5.53;5.13;;;10.80;99.90;;;;;;5051934;28;20644;-64
2023/01/11 08:59:21;;;;;;;5.93;5.47;;;10.80;99.90;;;;;;5040214;28;20616;-64
2023/01/11 09:01:46;;;;;;;7.87;5.50;;;10.80;99.90;;;;;;5033469;28;20196;-65
2023/01/11 09:04:12;;;;;;;4.87;4.47;;;10.80;99.90;;;;;;5044194;28;20210;-65
2023/01/11 09:06:38;;;;;;;7.17;5.70;;;10.80;99.90;;;;;;5053531;28;20566;-64
2023/01/11 09:09:03;;;;;;;5.33;5.03;;;10.80;99.90;;;;;;5043834;28;20175;-65
2023/01/11 09:14:13;;;;;;;5.50;5.10;;;10.80;99.90;;;;;;5043083;28;20273;-65
2023/01/11 09:16:39;;;;;;;6.97;5.13;;;10.80;99.90;;;;;;5053122;28;20195;-65
2023/01/11 09:19:04;;;;;;;5.47;5.10;;;10.80;99.90;;;;;;5052479;28;20175;-65
2023/01/11 09:21:30;;;;;;;5.10;4.80;;;10.80;99.90;;;;;;5052191;28;20207;-65
2023/01/11 09:23:56;;;;;;;4.50;4.30;;;10.80;99.90;;;;;;5042810;28;20206;-65
2023/01/11 09:26:21;;;;;;;5.43;5.00;;;10.80;99.90;;;;;;5050562;28;20187;-65
2023/01/11 09:28:47;;;;;;;5.83;5.20;;;10.80;99.90;;;;;;5052959;28;20250;-65
2023/01/11 09:31:13;;;;;;;5.80;5.50;;;10.70;99.90;;;;;;5031892;28;20238;-64
2023/01/11 09:33:38;;;;;;;5.70;5.30;;;10.70;99.90;;;;;;5032995;28;20521;-64
2023/01/11 09:36:04;;;;;;;5.73;5.37;;;10.70;99.90;;;;;;5032914;28;20309;-65
2023/01/11 09:38:32;;;;;;;5.10;4.80;;;10.60;99.90;;;;;;5033085;28;20486;-65
2023/01/11 09:41:19;;;;;;;5.83;5.53;;;10.60;99.90;;;;;;5032405;28;20683;-65
2023/01/11 09:44:13;;;;;;;6.67;6.00;;;10.60;99.90;;;;;;5032760;28;20206;-64
2023/01/11 09:46:41;;;;;;;6.30;5.90;;;10.50;99.90;;;;;;5026193;28;20214;-65
2023/01/11 09:49:21;;;;;;;10.43;6.37;;;10.50;99.90;;;;;;5050288;28;20186;-65
2023/01/11 09:51:49;;;;;;;7.50;7.00;;;10.50;99.90;;;;;;5051154;28;20199;-64
2023/01/11 09:54:21;;;;;;;7.33;5.97;;;10.50;99.90;;;;;;5033766;28;20180;-64
2023/01/11 09:57:21;;;;;;;8.03;6.73;;;10.50;99.90;;;;;;5026068;28;20270;-64
2023/01/11 10:00:12;;;;;;;7.00;5.70;;;10.50;99.90;;;;;;5005652;28;20193;-65
2023/01/11 10:03:11;;;;;;;7.33;6.57;;;10.50;99.90;;;;;;5042447;28;20223;-64
2023/01/11 10:05:58;;;;;;;7.23;6.53;;;10.50;99.90;;;;;;5032463;28;20222;-65
2023/01/11 10:08:52;;;;;;;7.07;6.37;;;10.50;99.90;;;;;;5032686;28;20176;-64
2023/01/11 10:11:47;;;;;;;6.10;5.60;;;10.50;99.90;;;;;;5031901;28;20538;-65
2023/01/11 10:14:37;;;;;;;6.47;5.93;;;10.50;99.90;;;;;;5046003;28;20187;-64
2023/01/11 10:17:21;;;;;;;6.33;5.80;;;10.40;99.90;;;;;;5051871;28;20640;-64
2023/01/11 10:19:59;;;;;;;15.67;6.10;;;10.40;99.90;;;;;;5031749;28;20183;-65
2023/01/11 10:22:32;;;;;;;8.33;6.07;;;10.30;99.90;;;;;;5045564;28;20568;-64
2023/01/11 10:25:06;;;;;;;6.00;5.70;;;10.30;99.90;;;;;;5032091;28;20167;-63
2023/01/11 10:27:39;;;;;;;10.33;6.10;;;10.20;99.90;;;;;;5051057;28;20170;-64
2023/01/11 10:30:34;;;;;;;5.90;5.37;;;10.20;99.90;;;;;;5051533;28;20167;-64
2023/01/11 10:33:27;;;;;;;6.87;6.33;;;10.20;99.90;;;;;;5012202;28;20184;-63
2023/01/11 10:36:26;;;;;;;8.33;5.97;;;10.10;99.90;;;;;;5017916;28;20186;-64
2023/01/11 10:42:06;;;;;;;6.60;6.00;;;10.20;99.90;;;;;;5030945;28;20241;-64
2023/01/11 10:44:52;;;;;;;10.57;6.33;;;10.20;99.90;;;;;;5031540;28;20244;-64
2023/01/11 10:47:22;;;;;;;8.83;6.83;;;10.20;99.90;;;;;;5031907;28;20167;-64
2023/01/11 10:50:17;;;;;;;10.50;6.17;;;10.20;99.90;;;;;;5030176;28;20588;-64
2023/01/11 10:52:54;;;;;;;6.77;5.70;;;10.20;99.90;;;;;;5014862;28;20219;-64
2023/01/11 10:55:28;;;;;;;11.33;7.37;;;10.20;99.90;;;;;;5031583;28;20167;-64
2023/01/11 10:58:05;;;;;;;9.27;8.43;;;10.20;99.90;;;;;;5031692;28;20179;-63
2023/01/11 11:00:57;;;;;;;8.33;7.50;;;10.20;99.90;;;;;;5031164;28;20171;-64
2023/01/11 11:03:46;;;;;;;8.87;8.03;;;10.20;99.90;;;;;;5011431;28;20800;-65
2023/01/11 11:06:35;;;;;;;8.83;5.77;;;10.20;99.90;;;;;;5003848;28;21851;-64
2023/01/11 11:09:25;;;;;;;9.00;6.13;;;10.20;99.90;;;;;;5031480;28;20168;-64
2023/01/11 11:11:57;;;;;;;6.13;5.73;;;10.10;99.90;;;;;;5038152;28;20205;-64
2023/01/11 11:14:37;;;;;;;7.83;6.90;;;10.00;99.90;;;;;;5051234;28;20253;-64
2023/01/11 11:17:21;;;;;;;8.83;6.20;;;10.00;99.90;;;;;;5049538;28;20178;-64
2023/01/11 11:19:46;;;;;;;10.57;8.13;;;9.90;99.90;;;;;;5051150;28;20175;-64
2023/01/11 11:22:12;;;;;;;6.30;5.90;;;9.90;99.90;;;;;;5042295;28;20195;-64
2023/01/11 11:24:48;;;;;;;8.27;6.07;;;9.90;99.90;;;;;;5031140;28;20203;-64
2023/01/11 11:27:14;;;;;;;10.70;6.37;;;10.00;99.90;;;;;;5031451;28;20598;-64
2023/01/11 11:29:47;;;;;;;6.30;5.80;;;10.10;99.90;;;;;;5031056;28;20175;-64
2023/01/11 11:32:19;;;;;;;5.80;5.50;;;10.10;99.90;;;;;;5038118;28;20276;-64
2023/01/11 11:34:47;;;;;;;5.97;5.33;;;10.20;99.90;;;;;;5051320;28;20167;-64
2023/01/11 11:37:41;;;;;;;10.90;5.73;;;10.30;99.90;;;;;;5050079;28;20224;-64
2023/01/11 11:40:28;;;;;;;6.27;5.13;;;10.50;99.90;;;;;;5049202;28;20193;-64
2023/01/11 11:43:25;;;;;;;9.53;5.10;;;10.60;99.90;;;;;;5038944;28;20199;-64
2023/01/11 11:45:55;;;;;;;11.60;5.73;;;10.90;99.90;;;;;;5029895;28;20317;-64
2023/01/11 11:48:22;;;;;;;4.97;4.50;;;11.20;99.90;;;;;;5045378;28;20189;-63
2023/01/11 11:50:49;;;;;;;5.97;5.40;;;11.50;99.90;;;;;;5050577;28;20186;-65
2023/01/11 11:53:52;;;;;;;32.07;5.87;;;11.70;99.90;;;;;;5050269;28;20265;-64
2023/01/11 11:56:23;;;;;;;8.07;5.37;;;12.00;99.90;;;;;;5043844;28;20194;-64
2023/01/11 11:58:49;;;;;;;7.40;5.30;;;12.00;99.90;;;;;;5033269;28;20237;-64
2023/01/11 12:01:30;;;;;;;7.17;6.63;;;12.00;99.90;;;;;;5036409;28;20311;-64
2023/01/11 12:04:11;;;;;;;7.67;4.93;;;11.70;99.90;;;;;;5030765;28;20203;-64
2023/01/11 12:06:37;;;;;;;6.83;5.13;;;11.60;99.90;;;;;;5028944;28;20266;-64
2023/01/11 12:09:11;;;;;;;10.27;5.17;;;11.30;99.90;;;;;;5043653;28;20635;-64
2023/01/11 12:11:40;;;;;;;8.60;5.23;;;11.10;99.90;;;;;;5045518;28;20494;-64
2023/01/11 12:14:09;;;;;;;5.87;5.27;;;11.00;99.90;;;;;;5030925;28;20247;-64
2023/01/11 12:16:38;;;;;;;4.87;4.40;;;10.90;99.90;;;;;;5034334;28;20406;-64
2023/01/11 12:19:23;;;;;;;5.10;4.80;;;10.90;99.90;;;;;;5046047;28;20200;-63
2023/01/11 12:21:50;;;;;;;6.83;5.60;;;11.00;99.90;;;;;;5054279;28;20627;-64
2023/01/11 12:24:18;;;;;;;5.27;4.80;;;11.10;99.90;;;;;;5041008;28;20199;-63
2023/01/11 12:27:07;;;;;;;6.17;5.40;;;11.30;99.90;;;;;;5034182;28;20302;-64
2023/01/11 12:29:33;;;;;;;7.10;4.50;;;11.50;99.90;;;;;;5047937;28;20195;-63
2023/01/11 12:32:07;;;;;;;5.50;4.23;;;11.80;99.90;;;;;;5054150;28;20248;-64
2023/01/11 12:34:37;;;;;;;7.07;4.47;;;12.00;99.90;;;;;;5039817;28;20270;-64
2023/01/11 12:37:29;;;;;;;7.83;5.50;;;12.20;99.90;;;;;;5033726;28;20183;-63
2023/01/11 12:40:30;;;;;;;9.07;4.80;;;12.40;99.90;;;;;;5033538;28;20179;-64
2023/01/11 12:43:17;;;;;;;6.40;5.93;;;12.60;99.90;;;;;;5017482;28;20618;-63
2023/01/11 12:46:03;;;;;;;10.47;5.20;;;12.70;99.90;;;;;;5014244;28;20255;-64
2023/01/11 12:48:48;;;;;;;5.07;4.10;;;12.60;99.90;;;;;;5021176;28;20636;-64
2023/01/11 12:51:33;;;;;;;7.10;4.20;;;12.60;99.90;;;;;;5053333;28;20253;-63
2023/01/11 12:54:38;;;;;;;4.73;4.43;;;12.60;99.90;;;;;;5052960;28;20257;-64
2023/01/11 12:57:37;;;;;;;7.23;3.93;;;12.80;99.90;;;;;;5053083;28;20675;-64
2023/01/11 13:00:25;;;;;;;9.90;5.23;;;12.90;99.90;;;;;;5038269;28;20656;-63
2023/01/11 13:03:18;;;;;;;6.50;4.60;;;12.90;99.90;;;;;;5032032;28;20772;-63
2023/01/11 13:06:02;;;;;;;5.27;4.80;;;12.80;99.90;;;;;;5053325;28;20202;-63
2023/01/11 13:08:55;;;;;;;7.17;4.60;;;12.70;99.90;;;;;;5052871;28;20535;-63
2023/01/11 13:11:36;;;;;;;8.03;4.53;;;12.80;99.90;;;;;;5033116;28;20606;-63
2023/01/11 13:14:20;;;;;;;4.63;4.23;;;12.90;99.90;;;;;;5037682;28;20576;-63
2023/01/11 13:17:10;;;;;;;10.17;4.07;;;12.80;99.90;;;;;;5053422;28;20179;-63
2023/01/11 13:19:42;;;;;;;7.37;5.10;;;12.70;99.90;;;;;;5044156;28;20294;-63
2023/01/11 13:22:17;;;;;;;6.57;4.57;;;12.70;99.90;;;;;;5033263;28;20241;-63
2023/01/11 13:24:46;;;;;;;4.57;4.23;;;12.70;99.90;;;;;;5039786;28;20202;-63
2023/01/11 13:27:24;;;;;;;5.80;4.47;;;12.70;99.90;;;;;;5041161;28;20179;-63
2023/01/11 13:29:54;;;;;;;5.53;4.40;;;12.90;99.90;;;;;;5042021;28;20174;-63
2023/01/11 13:32:31;;;;;;;6.70;4.60;;;12.90;99.90;;;;;;5052873;28;20199;-63
2023/01/11 13:35:19;;;;;;;5.70;4.90;;;12.80;99.90;;;;;;5051956;28;20178;-63
2023/01/11 13:38:26;;;;;;;7.27;6.57;;;12.70;99.90;;;;;;5052900;28;20644;-63
2023/01/11 13:40:57;;;;;;;7.07;5.67;;;12.60;99.90;;;;;;5010284;28;20282;-63